sensor_id;sensor_type;location;lat;lon;timestamp;temperature;humidity
52387;DHT22;38317;53.084;6.960;2022-12-18T00:01:29;-2.90;99.90
52387;DHT22;38317;53.084;6.960;2022-12-18T00:03:56;-2.80;99.90
52387;DHT22;38317;53.084;6.960;2022-12-18T00:06:24;-2.50;99.90
52387;DHT22;38317;53.084;6.960;2022-12-18T00:08:50;-2.90;99.90
52387;DHT22;38317;53.084;6.960;2022-12-18T00:11:22;-2.90;99.90
52387;DHT22;38317;53.084;6.960;2022-12-18T00:13:49;-2.90;99.90
52387;DHT22;38317;53.084;6.960;2022-12-18T00:16:20;-3.00;99.90
52387;DHT22;38317;53.084;6.960;2022-12-18T00:18:47;-2.80;99.90
52387;DHT22;38317;53.084;6.960;2022-12-18T00:21:14;-2.60;99.90
52387;DHT22;38317;53.084;6.960;2022-12-18T00:23:41;-2.90;99.90
52387;DHT22;38317;53.084;6.960;2022-12-18T00:26:18;-2.90;99.90
52387;DHT22;38317;53.084;6.960;2022-12-18T00:28:44;-2.90;99.90
52387;DHT22;38317;53.084;6.960;2022-12-18T00:31:15;-3.10;99.90
52387;DHT22;38317;53.084;6.960;2022-12-18T00:33:41;-2.90;99.90
52387;DHT22;38317;53.084;6.960;2022-12-18T00:36:11;-2.90;99.90
52387;DHT22;38317;53.084;6.960;2022-12-18T00:38:37;-2.90;99.90
52387;DHT22;38317;53.084;6.960;2022-12-18T00:41:04;-3.00;99.90
52387;DHT22;38317;53.084;6.960;2022-12-18T00:43:30;-3.00;99.90
52387;DHT22;38317;53.084;6.960;2022-12-18T00:45:56;-3.00;99.90
52387;DHT22;38317;53.084;6.960;2022-12-18T00:48:22;-3.00;99.90
52387;DHT22;38317;53.084;6.960;2022-12-18T00:50:49;-3.20;99.90
52387;DHT22;38317;53.084;6.960;2022-12-18T00:53:15;-3.00;99.90
52387;DHT22;38317;53.084;6.960;2022-12-18T00:55:41;-3.10;99.90
52387;DHT22;38317;53.084;6.960;2022-12-18T00:58:08;-3.20;99.90
52387;DHT22;38317;53.084;6.960;2022-12-18T01:00:34;-2.00;99.90
52387;DHT22;38317;53.084;6.960;2022-12-18T01:03:00;-3.10;99.90
52387;DHT22;38317;53.084;6.960;2022-12-18T01:05:26;-2.90;99.90
52387;DHT22;38317;53.084;6.960;2022-12-18T01:07:52;-3.10;99.90
52387;DHT22;38317;53.084;6.960;2022-12-18T01:10:18;-3.20;99.90
52387;DHT22;38317;53.084;6.960;2022-12-18T01:12:44;-3.10;99.90
52387;DHT22;38317;53.084;6.960;2022-12-18T01:15:12;-3.20;99.90
52387;DHT22;38317;53.084;6.960;2022-12-18T01:17:37;-3.20;99.90
52387;DHT22;38317;53.084;6.960;2022-12-18T01:20:03;-3.10;99.90
52387;DHT22;38317;53.084;6.960;2022-12-18T01:22:29;-3.20;99.90
52387;DHT22;38317;53.084;6.960;2022-12-18T01:24:55;-2.50;99.90
52387;DHT22;38317;53.084;6.960;2022-12-18T01:27:21;-4.70;99.90
52387;DHT22;38317;53.084;6.960;2022-12-18T01:29:46;-3.20;99.90
52387;DHT22;38317;53.084;6.960;2022-12-18T01:32:12;-3.20;99.90
52387;DHT22;38317;53.084;6.960;2022-12-18T01:34:38;-3.10;99.90
52387;DHT22;38317;53.084;6.960;2022-12-18T01:37:04;-3.30;99.90
52387;DHT22;38317;53.084;6.960;2022-12-18T01:39:31;-3.40;99.90
52387;DHT22;38317;53.084;6.960;2022-12-18T01:42:02;-3.30;99.90
52387;DHT22;38317;53.084;6.960;2022-12-18T01:49:50;-3.30;99.90
52387;DHT22;38317;53.084;6.960;2022-12-18T01:52:17;-3.40;99.90
52387;DHT22;38317;53.084;6.960;2022-12-18T01:54:45;-3.40;99.90
52387;DHT22;38317;53.084;6.960;2022-12-18T01:57:11;-3.40;99.90
52387;DHT22;38317;53.084;6.960;2022-12-18T01:59:37;-3.40;99.90
52387;DHT22;38317;53.084;6.960;2022-12-18T02:02:04;-3.50;99.90
52387;DHT22;38317;53.084;6.960;2022-12-18T02:04:30;-2.60;99.90
52387;DHT22;38317;53.084;6.960;2022-12-18T02:09:48;-3.50;99.90
52387;DHT22;38317;53.084;6.960;2022-12-18T02:12:23;-1.90;99.90
52387;DHT22;38317;53.084;6.960;2022-12-18T02:17:23;-3.60;99.90
52387;DHT22;38317;53.084;6.960;2022-12-18T02:20:12;-2.60;99.90
52387;DHT22;38317;53.084;6.960;2022-12-18T02:22:56;-3.70;99.90
52387;DHT22;38317;53.084;6.960;2022-12-18T02:27:58;-3.70;99.90
52387;DHT22;38317;53.084;6.960;2022-12-18T02:30:26;-3.80;99.90
52387;DHT22;38317;53.084;6.960;2022-12-18T02:32:55;-3.90;99.90
52387;DHT22;38317;53.084;6.960;2022-12-18T02:35:27;-3.80;99.90
52387;DHT22;38317;53.084;6.960;2022-12-18T02:37:54;-4.50;99.90
52387;DHT22;38317;53.084;6.960;2022-12-18T02:40:22;-4.10;99.90
52387;DHT22;38317;53.084;6.960;2022-12-18T02:42:49;-3.90;99.90
52387;DHT22;38317;53.084;6.960;2022-12-18T02:45:15;-4.00;99.90
52387;DHT22;38317;53.084;6.960;2022-12-18T02:47:43;-4.10;99.90
52387;DHT22;38317;53.084;6.960;2022-12-18T02:53:24;-4.00;99.90
52387;DHT22;38317;53.084;6.960;2022-12-18T02:55:45;-4.10;99.90
52387;DHT22;38317;53.084;6.960;2022-12-18T03:04:49;-4.20;99.90
52387;DHT22;38317;53.084;6.960;2022-12-18T03:06:50;-3.70;99.90
52387;DHT22;38317;53.084;6.960;2022-12-18T03:09:22;-3.40;99.90
52387;DHT22;38317;53.084;6.960;2022-12-18T03:12:21;-4.30;99.90
52387;DHT22;38317;53.084;6.960;2022-12-18T03:15:07;-4.20;99.90
52387;DHT22;38317;53.084;6.960;2022-12-18T03:17:34;-4.20;99.90
52387;DHT22;38317;53.084;6.960;2022-12-18T03:20:13;-4.30;99.90
52387;DHT22;38317;53.084;6.960;2022-12-18T03:22:42;-4.30;99.90
52387;DHT22;38317;53.084;6.960;2022-12-18T03:25:12;-4.30;99.90
52387;DHT22;38317;53.084;6.960;2022-12-18T03:27:43;-4.40;99.90
52387;DHT22;38317;53.084;6.960;2022-12-18T03:30:12;-4.50;99.90
52387;DHT22;38317;53.084;6.960;2022-12-18T03:33:02;-4.50;99.90
52387;DHT22;38317;53.084;6.960;2022-12-18T03:35:34;-4.50;99.90
52387;DHT22;38317;53.084;6.960;2022-12-18T03:38:00;-4.60;99.90
52387;DHT22;38317;53.084;6.960;2022-12-18T03:40:45;-4.60;99.90
52387;DHT22;38317;53.084;6.960;2022-12-18T03:43:43;-4.60;99.90
52387;DHT22;38317;53.084;6.960;2022-12-18T03:46:24;-4.70;99.90
52387;DHT22;38317;53.084;6.960;2022-12-18T03:49:18;-5.60;99.90
52387;DHT22;38317;53.084;6.960;2022-12-18T03:52:02;-4.40;99.90
52387;DHT22;38317;53.084;6.960;2022-12-18T03:54:30;-4.70;99.90
52387;DHT22;38317;53.084;6.960;2022-12-18T03:57:12;-4.90;99.90
52387;DHT22;38317;53.084;6.960;2022-12-18T03:59:39;-4.80;99.90
52387;DHT22;38317;53.084;6.960;2022-12-18T04:02:07;-4.80;99.90
52387;DHT22;38317;53.084;6.960;2022-12-18T04:04:35;-4.80;99.90
52387;DHT22;38317;53.084;6.960;2022-12-18T04:07:03;-4.80;99.90
52387;DHT22;38317;53.084;6.960;2022-12-18T04:09:32;-5.00;99.90
52387;DHT22;38317;53.084;6.960;2022-12-18T04:11:58;-5.60;99.90
52387;DHT22;38317;53.084;6.960;2022-12-18T04:14:24;-3.80;99.90
52387;DHT22;38317;53.084;6.960;2022-12-18T04:16:49;-5.10;99.90
52387;DHT22;38317;53.084;6.960;2022-12-18T04:19:15;-4.90;99.90
52387;DHT22;38317;53.084;6.960;2022-12-18T04:21:41;-5.00;99.90
52387;DHT22;38317;53.084;6.960;2022-12-18T04:24:06;-4.90;99.90
52387;DHT22;38317;53.084;6.960;2022-12-18T04:26:32;-4.90;99.90
52387;DHT22;38317;53.084;6.960;2022-12-18T04:28:58;-4.10;99.90
52387;DHT22;38317;53.084;6.960;2022-12-18T04:31:24;-5.10;99.90
52387;DHT22;38317;53.084;6.960;2022-12-18T04:33:49;-5.00;99.90
52387;DHT22;38317;53.084;6.960;2022-12-18T04:36:15;-5.00;99.90
52387;DHT22;38317;53.084;6.960;2022-12-18T04:38:41;-5.10;99.90
52387;DHT22;38317;53.084;6.960;2022-12-18T04:41:06;-5.20;99.90
52387;DHT22;38317;53.084;6.960;2022-12-18T04:43:32;-6.00;99.90
52387;DHT22;38317;53.084;6.960;2022-12-18T04:46:08;-5.00;99.90
52387;DHT22;38317;53.084;6.960;2022-12-18T04:48:34;-4.50;99.90
52387;DHT22;38317;53.084;6.960;2022-12-18T04:51:00;-4.90;99.90
52387;DHT22;38317;53.084;6.960;2022-12-18T04:53:26;-5.10;99.90
52387;DHT22;38317;53.084;6.960;2022-12-18T04:56:11;-4.90;99.90
52387;DHT22;38317;53.084;6.960;2022-12-18T04:58:39;-5.20;99.90
52387;DHT22;38317;53.084;6.960;2022-12-18T05:01:05;-5.30;99.90
52387;DHT22;38317;53.084;6.960;2022-12-18T05:03:33;-5.20;99.90
52387;DHT22;38317;53.084;6.960;2022-12-18T05:05:59;-5.20;99.90
52387;DHT22;38317;53.084;6.960;2022-12-18T05:08:25;-5.10;99.90
52387;DHT22;38317;53.084;6.960;2022-12-18T05:11:08;-5.90;99.90
52387;DHT22;38317;53.084;6.960;2022-12-18T05:13:35;-4.40;99.90
52387;DHT22;38317;53.084;6.960;2022-12-18T05:16:01;-5.80;99.90
52387;DHT22;38317;53.084;6.960;2022-12-18T05:18:28;-5.30;99.90
52387;DHT22;38317;53.084;6.960;2022-12-18T05:20:54;-4.10;99.90
52387;DHT22;38317;53.084;6.960;2022-12-18T05:23:21;-5.30;99.90
52387;DHT22;38317;53.084;6.960;2022-12-18T05:26:06;-3.80;99.90
52387;DHT22;38317;53.084;6.960;2022-12-18T05:28:34;-5.20;99.90
52387;DHT22;38317;53.084;6.960;2022-12-18T05:31:02;-5.30;99.90
52387;DHT22;38317;53.084;6.960;2022-12-18T05:33:31;-5.30;99.90
52387;DHT22;38317;53.084;6.960;2022-12-18T05:35:59;-5.20;99.90
52387;DHT22;38317;53.084;6.960;2022-12-18T05:38:27;-5.20;99.90
52387;DHT22;38317;53.084;6.960;2022-12-18T05:40:53;-5.30;99.90
52387;DHT22;38317;53.084;6.960;2022-12-18T05:43:20;-5.30;99.90
52387;DHT22;38317;53.084;6.960;2022-12-18T05:45:47;-5.20;99.90
52387;DHT22;38317;53.084;6.960;2022-12-18T05:48:14;-5.20;99.90
52387;DHT22;38317;53.084;6.960;2022-12-18T05:50:41;-5.30;99.90
52387;DHT22;38317;53.084;6.960;2022-12-18T05:53:07;-5.30;99.90
52387;DHT22;38317;53.084;6.960;2022-12-18T05:55:37;-4.80;99.90
52387;DHT22;38317;53.084;6.960;2022-12-18T05:58:04;-6.70;99.90
52387;DHT22;38317;53.084;6.960;2022-12-18T06:00:32;-5.30;99.90
52387;DHT22;38317;53.084;6.960;2022-12-18T06:02:58;-5.30;99.90
52387;DHT22;38317;53.084;6.960;2022-12-18T06:05:25;-6.00;99.90
52387;DHT22;38317;53.084;6.960;2022-12-18T06:07:51;-5.40;99.90
52387;DHT22;38317;53.084;6.960;2022-12-18T06:10:17;-5.40;99.90
52387;DHT22;38317;53.084;6.960;2022-12-18T06:12:42;-5.40;99.90
52387;DHT22;38317;53.084;6.960;2022-12-18T06:15:08;-5.50;99.90
52387;DHT22;38317;53.084;6.960;2022-12-18T06:17:36;-5.40;99.90
52387;DHT22;38317;53.084;6.960;2022-12-18T06:20:03;-4.40;99.90
52387;DHT22;38317;53.084;6.960;2022-12-18T06:22:31;-5.50;99.90
52387;DHT22;38317;53.084;6.960;2022-12-18T06:24:57;-4.60;99.90
52387;DHT22;38317;53.084;6.960;2022-12-18T06:27:22;-4.90;99.90
52387;DHT22;38317;53.084;6.960;2022-12-18T06:29:48;-5.40;99.90
52387;DHT22;38317;53.084;6.960;2022-12-18T06:32:14;-5.40;99.90
52387;DHT22;38317;53.084;6.960;2022-12-18T06:34:40;-3.00;99.90
52387;DHT22;38317;53.084;6.960;2022-12-18T06:37:06;-5.50;99.90
52387;DHT22;38317;53.084;6.960;2022-12-18T06:39:31;-5.40;99.90
52387;DHT22;38317;53.084;6.960;2022-12-18T06:41:57;-5.20;99.90
52387;DHT22;38317;53.084;6.960;2022-12-18T06:44:23;-5.50;99.90
52387;DHT22;38317;53.084;6.960;2022-12-18T06:46:48;-5.40;99.90
52387;DHT22;38317;53.084;6.960;2022-12-18T06:49:14;-5.60;99.90
52387;DHT22;38317;53.084;6.960;2022-12-18T06:51:41;-5.50;99.90
52387;DHT22;38317;53.084;6.960;2022-12-18T06:54:07;-5.50;99.90
52387;DHT22;38317;53.084;6.960;2022-12-18T06:56:33;-5.40;99.90
52387;DHT22;38317;53.084;6.960;2022-12-18T06:58:59;-5.50;99.90
52387;DHT22;38317;53.084;6.960;2022-12-18T07:01:24;-5.50;99.90
52387;DHT22;38317;53.084;6.960;2022-12-18T07:03:54;-5.60;99.90
52387;DHT22;38317;53.084;6.960;2022-12-18T07:06:23;-5.70;99.90
52387;DHT22;38317;53.084;6.960;2022-12-18T07:08:49;-5.50;99.90
52387;DHT22;38317;53.084;6.960;2022-12-18T07:11:16;-5.60;99.90
52387;DHT22;38317;53.084;6.960;2022-12-18T07:13:42;-5.60;99.90
52387;DHT22;38317;53.084;6.960;2022-12-18T07:16:10;-5.60;99.90
52387;DHT22;38317;53.084;6.960;2022-12-18T07:18:36;-5.60;99.90
52387;DHT22;38317;53.084;6.960;2022-12-18T07:21:06;-5.40;99.90
52387;DHT22;38317;53.084;6.960;2022-12-18T07:23:33;-5.40;99.90
52387;DHT22;38317;53.084;6.960;2022-12-18T07:26:11;-5.70;99.90
52387;DHT22;38317;53.084;6.960;2022-12-18T07:28:38;-5.70;99.90
52387;DHT22;38317;53.084;6.960;2022-12-18T07:31:11;-5.60;99.90
52387;DHT22;38317;53.084;6.960;2022-12-18T07:33:38;-5.70;99.90
52387;DHT22;38317;53.084;6.960;2022-12-18T07:36:05;-5.60;99.90
52387;DHT22;38317;53.084;6.960;2022-12-18T07:38:32;-5.60;99.90
52387;DHT22;38317;53.084;6.960;2022-12-18T07:41:02;-5.40;99.90
52387;DHT22;38317;53.084;6.960;2022-12-18T07:43:28;-4.30;99.90
52387;DHT22;38317;53.084;6.960;2022-12-18T07:45:54;-5.60;99.90
52387;DHT22;38317;53.084;6.960;2022-12-18T07:48:20;-5.70;99.90
52387;DHT22;38317;53.084;6.960;2022-12-18T07:50:46;-5.60;99.90
52387;DHT22;38317;53.084;6.960;2022-12-18T07:53:11;-5.60;99.90
52387;DHT22;38317;53.084;6.960;2022-12-18T07:55:37;-5.60;99.90
52387;DHT22;38317;53.084;6.960;2022-12-18T07:58:03;-5.40;99.90
52387;DHT22;38317;53.084;6.960;2022-12-18T08:00:30;-5.50;99.90
52387;DHT22;38317;53.084;6.960;2022-12-18T08:02:57;-5.60;99.90
52387;DHT22;38317;53.084;6.960;2022-12-18T08:05:23;-3.20;99.90
52387;DHT22;38317;53.084;6.960;2022-12-18T08:07:49;-5.50;99.90
52387;DHT22;38317;53.084;6.960;2022-12-18T08:10:15;-4.90;99.90
52387;DHT22;38317;53.084;6.960;2022-12-18T08:12:40;-5.50;99.90
52387;DHT22;38317;53.084;6.960;2022-12-18T08:15:06;-5.40;99.90
52387;DHT22;38317;53.084;6.960;2022-12-18T08:17:32;-4.70;99.90
52387;DHT22;38317;53.084;6.960;2022-12-18T08:19:58;-5.00;99.90
52387;DHT22;38317;53.084;6.960;2022-12-18T08:22:24;-5.20;99.90
52387;DHT22;38317;53.084;6.960;2022-12-18T08:24:50;-5.30;99.90
52387;DHT22;38317;53.084;6.960;2022-12-18T08:27:16;-4.40;99.90
52387;DHT22;38317;53.084;6.960;2022-12-18T08:29:41;-4.80;99.90
52387;DHT22;38317;53.084;6.960;2022-12-18T08:32:07;-5.10;99.90
52387;DHT22;38317;53.084;6.960;2022-12-18T08:34:33;-5.10;99.90
52387;DHT22;38317;53.084;6.960;2022-12-18T08:36:59;-5.10;99.90
52387;DHT22;38317;53.084;6.960;2022-12-18T08:39:25;-4.90;99.90
52387;DHT22;38317;53.084;6.960;2022-12-18T08:41:51;-4.90;99.90
52387;DHT22;38317;53.084;6.960;2022-12-18T08:44:35;-4.40;99.90
52387;DHT22;38317;53.084;6.960;2022-12-18T08:47:04;-4.90;99.90
52387;DHT22;38317;53.084;6.960;2022-12-18T08:49:30;-5.00;99.90
52387;DHT22;38317;53.084;6.960;2022-12-18T08:51:56;-4.40;99.90
52387;DHT22;38317;53.084;6.960;2022-12-18T08:54:25;-5.00;99.90
52387;DHT22;38317;53.084;6.960;2022-12-18T08:56:51;-4.80;99.90
52387;DHT22;38317;53.084;6.960;2022-12-18T08:59:18;-3.70;99.90
52387;DHT22;38317;53.084;6.960;2022-12-18T09:01:44;-4.30;99.90
52387;DHT22;38317;53.084;6.960;2022-12-18T09:04:10;-3.70;99.90
52387;DHT22;38317;53.084;6.960;2022-12-18T09:06:37;-4.70;99.90
52387;DHT22;38317;53.084;6.960;2022-12-18T09:09:04;-4.70;99.90
52387;DHT22;38317;53.084;6.960;2022-12-18T09:11:31;-4.70;99.90
52387;DHT22;38317;53.084;6.960;2022-12-18T09:13:59;-4.60;99.90
52387;DHT22;38317;53.084;6.960;2022-12-18T09:16:25;-4.60;99.90
52387;DHT22;38317;53.084;6.960;2022-12-18T09:18:54;-4.60;99.90
52387;DHT22;38317;53.084;6.960;2022-12-18T09:21:26;-4.10;99.90
52387;DHT22;38317;53.084;6.960;2022-12-18T09:23:53;-4.50;99.90
52387;DHT22;38317;53.084;6.960;2022-12-18T09:26:20;-4.50;99.90
52387;DHT22;38317;53.084;6.960;2022-12-18T09:28:46;-4.50;99.90
52387;DHT22;38317;53.084;6.960;2022-12-18T09:31:13;-4.60;99.90
52387;DHT22;38317;53.084;6.960;2022-12-18T09:33:39;-4.30;99.90
52387;DHT22;38317;53.084;6.960;2022-12-18T09:36:06;-4.30;99.90
52387;DHT22;38317;53.084;6.960;2022-12-18T09:38:33;-4.20;99.90
52387;DHT22;38317;53.084;6.960;2022-12-18T09:41:05;-4.20;99.90
52387;DHT22;38317;53.084;6.960;2022-12-18T09:43:40;-4.10;99.90
52387;DHT22;38317;53.084;6.960;2022-12-18T09:46:10;-5.90;99.90
52387;DHT22;38317;53.084;6.960;2022-12-18T09:48:44;-4.00;99.90
52387;DHT22;38317;53.084;6.960;2022-12-18T09:51:20;-3.90;99.90
52387;DHT22;38317;53.084;6.960;2022-12-18T09:54:01;-4.00;99.90
52387;DHT22;38317;53.084;6.960;2022-12-18T09:56:33;-3.70;99.90
52387;DHT22;38317;53.084;6.960;2022-12-18T09:59:01;-2.60;99.90
52387;DHT22;38317;53.084;6.960;2022-12-18T10:01:29;-2.70;99.90
52387;DHT22;38317;53.084;6.960;2022-12-18T10:03:56;-3.50;99.90
52387;DHT22;38317;53.084;6.960;2022-12-18T10:06:46;-3.40;99.90
52387;DHT22;38317;53.084;6.960;2022-12-18T10:17:49;-3.30;99.90
52387;DHT22;38317;53.084;6.960;2022-12-18T10:22:58;-3.30;99.90
52387;DHT22;38317;53.084;6.960;2022-12-18T10:28:19;-3.40;99.90
52387;DHT22;38317;53.084;6.960;2022-12-18T10:30:46;-2.60;99.90
52387;DHT22;38317;53.084;6.960;2022-12-18T10:33:18;-3.20;99.90
52387;DHT22;38317;53.084;6.960;2022-12-18T10:35:45;-3.10;99.90
52387;DHT22;38317;53.084;6.960;2022-12-18T10:41:44;-2.80;99.90
52387;DHT22;38317;53.084;6.960;2022-12-18T10:43:47;-2.90;99.90
52387;DHT22;38317;53.084;6.960;2022-12-18T10:46:16;-2.80;99.90
52387;DHT22;38317;53.084;6.960;2022-12-18T10:48:54;-2.10;99.90
52387;DHT22;38317;53.084;6.960;2022-12-18T10:51:24;-1.80;99.90
52387;DHT22;38317;53.084;6.960;2022-12-18T10:56:28;-2.70;99.90
52387;DHT22;38317;53.084;6.960;2022-12-18T10:58:58;-2.70;99.90
52387;DHT22;38317;53.084;6.960;2022-12-18T11:01:24;-2.60;99.90
52387;DHT22;38317;53.084;6.960;2022-12-18T11:06:18;-2.50;99.90
52387;DHT22;38317;53.084;6.960;2022-12-18T11:09:01;-1.50;99.90
52387;DHT22;38317;53.084;6.960;2022-12-18T11:11:27;-1.90;99.90
52387;DHT22;38317;53.084;6.960;2022-12-18T11:14:05;-2.50;99.90
52387;DHT22;38317;53.084;6.960;2022-12-18T11:16:36;-2.50;99.90
52387;DHT22;38317;53.084;6.960;2022-12-18T11:21:49;-2.20;99.90
52387;DHT22;38317;53.084;6.960;2022-12-18T11:24:23;-1.80;99.90
52387;DHT22;38317;53.084;6.960;2022-12-18T11:26:50;-2.30;99.90
52387;DHT22;38317;53.084;6.960;2022-12-18T11:29:18;-2.30;99.90
52387;DHT22;38317;53.084;6.960;2022-12-18T11:31:44;-2.10;99.90
52387;DHT22;38317;53.084;6.960;2022-12-18T11:34:26;-0.90;99.90
52387;DHT22;38317;53.084;6.960;2022-12-18T11:36:54;-2.20;99.90
52387;DHT22;38317;53.084;6.960;2022-12-18T11:41:47;-0.40;99.90
52387;DHT22;38317;53.084;6.960;2022-12-18T11:44:50;-1.00;99.90
52387;DHT22;38317;53.084;6.960;2022-12-18T11:47:37;-2.00;99.90
52387;DHT22;38317;53.084;6.960;2022-12-18T11:50:12;-2.00;99.90
52387;DHT22;38317;53.084;6.960;2022-12-18T11:52:40;-1.90;99.90
52387;DHT22;38317;53.084;6.960;2022-12-18T11:55:36;-1.30;99.90
52387;DHT22;38317;53.084;6.960;2022-12-18T12:00:47;-1.90;99.90
52387;DHT22;38317;53.084;6.960;2022-12-18T12:03:43;-1.80;99.90
52387;DHT22;38317;53.084;6.960;2022-12-18T12:08:49;-1.80;99.90
52387;DHT22;38317;53.084;6.960;2022-12-18T12:11:28;0.10;99.90
52387;DHT22;38317;53.084;6.960;2022-12-18T12:14:23;-1.90;99.90
52387;DHT22;38317;53.084;6.960;2022-12-18T12:20:16;-1.70;99.90
52387;DHT22;38317;53.084;6.960;2022-12-18T12:23:06;-1.70;99.90
52387;DHT22;38317;53.084;6.960;2022-12-18T12:26:01;-1.70;99.90
52387;DHT22;38317;53.084;6.960;2022-12-18T12:28:56;-1.70;99.90
52387;DHT22;38317;53.084;6.960;2022-12-18T12:31:53;-1.60;99.90
52387;DHT22;38317;53.084;6.960;2022-12-18T12:34:30;-1.60;99.90
52387;DHT22;38317;53.084;6.960;2022-12-18T12:37:05;-1.60;99.90
52387;DHT22;38317;53.084;6.960;2022-12-18T12:39:38;-1.60;99.90
52387;DHT22;38317;53.084;6.960;2022-12-18T12:42:23;-1.60;99.90
52387;DHT22;38317;53.084;6.960;2022-12-18T12:45:21;-1.50;99.90
52387;DHT22;38317;53.084;6.960;2022-12-18T12:47:49;-1.50;99.90
52387;DHT22;38317;53.084;6.960;2022-12-18T12:50:19;-1.40;99.90
52387;DHT22;38317;53.084;6.960;2022-12-18T12:52:50;-1.70;99.90
52387;DHT22;38317;53.084;6.960;2022-12-18T12:55:25;-1.00;99.90
52387;DHT22;38317;53.084;6.960;2022-12-18T12:58:28;-1.50;99.90
52387;DHT22;38317;53.084;6.960;2022-12-18T13:09:10;-1.30;99.90
52387;DHT22;38317;53.084;6.960;2022-12-18T13:11:44;-1.30;99.90
52387;DHT22;38317;53.084;6.960;2022-12-18T13:14:35;-1.20;99.90
52387;DHT22;38317;53.084;6.960;2022-12-18T13:19:56;-0.70;99.90
52387;DHT22;38317;53.084;6.960;2022-12-18T13:22:47;-1.10;99.90
52387;DHT22;38317;53.084;6.960;2022-12-18T13:25:35;-1.10;99.90
52387;DHT22;38317;53.084;6.960;2022-12-18T13:28:08;-1.10;99.90
52387;DHT22;38317;53.084;6.960;2022-12-18T13:41:26;-1.10;99.90
52387;DHT22;38317;53.084;6.960;2022-12-18T13:43:54;-1.00;99.90
52387;DHT22;38317;53.084;6.960;2022-12-18T13:46:42;-1.10;99.90
52387;DHT22;38317;53.084;6.960;2022-12-18T13:52:03;-1.10;99.90
52387;DHT22;38317;53.084;6.960;2022-12-18T13:54:42;-1.10;99.90
52387;DHT22;38317;53.084;6.960;2022-12-18T13:57:35;-0.80;99.90
52387;DHT22;38317;53.084;6.960;2022-12-18T14:02:48;-1.10;99.90
52387;DHT22;38317;53.084;6.960;2022-12-18T14:05:29;-1.10;99.90
52387;DHT22;38317;53.084;6.960;2022-12-18T14:08:00;-1.10;99.90
52387;DHT22;38317;53.084;6.960;2022-12-18T14:10:27;-1.30;99.90
52387;DHT22;38317;53.084;6.960;2022-12-18T14:12:53;-1.10;99.90
52387;DHT22;38317;53.084;6.960;2022-12-18T14:17:53;-1.20;99.90
52387;DHT22;38317;53.084;6.960;2022-12-18T14:20:20;-1.20;99.90
52387;DHT22;38317;53.084;6.960;2022-12-18T14:22:48;-1.30;99.90
52387;DHT22;38317;53.084;6.960;2022-12-18T14:25:25;-1.30;99.90
52387;DHT22;38317;53.084;6.960;2022-12-18T14:27:52;-1.20;99.90
52387;DHT22;38317;53.084;6.960;2022-12-18T14:30:39;-1.30;99.90
52387;DHT22;38317;53.084;6.960;2022-12-18T14:35:39;-1.40;99.90
52387;DHT22;38317;53.084;6.960;2022-12-18T14:38:20;-1.30;99.90
52387;DHT22;38317;53.084;6.960;2022-12-18T14:40:46;-1.30;99.90
52387;DHT22;38317;53.084;6.960;2022-12-18T14:43:12;-1.40;99.90
52387;DHT22;38317;53.084;6.960;2022-12-18T14:45:43;-1.20;99.90
52387;DHT22;38317;53.084;6.960;2022-12-18T14:50:42;-1.50;99.90
52387;DHT22;38317;53.084;6.960;2022-12-18T14:53:24;-1.60;99.90
52387;DHT22;38317;53.084;6.960;2022-12-18T14:55:52;-1.60;99.90
52387;DHT22;38317;53.084;6.960;2022-12-18T14:58:18;-1.40;99.90
52387;DHT22;38317;53.084;6.960;2022-12-18T15:00:44;-1.60;99.90
52387;DHT22;38317;53.084;6.960;2022-12-18T15:03:12;-1.50;99.90
52387;DHT22;38317;53.084;6.960;2022-12-18T15:05:41;-1.70;99.90
52387;DHT22;38317;53.084;6.960;2022-12-18T15:08:31;-1.60;99.90
52387;DHT22;38317;53.084;6.960;2022-12-18T15:10:59;-1.60;99.90
52387;DHT22;38317;53.084;6.960;2022-12-18T15:13:25;-1.60;99.90
52387;DHT22;38317;53.084;6.960;2022-12-18T15:15:52;-1.70;99.90
52387;DHT22;38317;53.084;6.960;2022-12-18T15:18:41;-0.80;99.90
52387;DHT22;38317;53.084;6.960;2022-12-18T15:21:09;-1.70;99.90
52387;DHT22;38317;53.084;6.960;2022-12-18T15:23:45;-1.10;99.90
52387;DHT22;38317;53.084;6.960;2022-12-18T15:26:13;-1.60;99.90
52387;DHT22;38317;53.084;6.960;2022-12-18T15:28:47;-1.70;99.90
52387;DHT22;38317;53.084;6.960;2022-12-18T15:33:44;-1.60;99.90
52387;DHT22;38317;53.084;6.960;2022-12-18T15:36:14;-1.60;99.90
52387;DHT22;38317;53.084;6.960;2022-12-18T15:38:40;-1.70;99.90
52387;DHT22;38317;53.084;6.960;2022-12-18T15:41:06;-1.70;99.90
52387;DHT22;38317;53.084;6.960;2022-12-18T15:43:38;-1.60;99.90
52387;DHT22;38317;53.084;6.960;2022-12-18T15:46:06;-1.70;99.90
52387;DHT22;38317;53.084;6.960;2022-12-18T15:48:34;-1.50;99.90
52387;DHT22;38317;53.084;6.960;2022-12-18T15:51:01;-1.70;99.90
52387;DHT22;38317;53.084;6.960;2022-12-18T15:53:32;-1.60;99.90
52387;DHT22;38317;53.084;6.960;2022-12-18T15:55:59;-1.70;99.90
52387;DHT22;38317;53.084;6.960;2022-12-18T15:58:43;-1.70;99.90
52387;DHT22;38317;53.084;6.960;2022-12-18T16:01:09;-1.70;99.90
52387;DHT22;38317;53.084;6.960;2022-12-18T16:03:36;-1.90;99.90
52387;DHT22;38317;53.084;6.960;2022-12-18T16:06:02;-1.20;99.90
52387;DHT22;38317;53.084;6.960;2022-12-18T16:08:29;-1.70;99.90
52387;DHT22;38317;53.084;6.960;2022-12-18T16:10:56;-1.70;99.90
52387;DHT22;38317;53.084;6.960;2022-12-18T16:13:22;-1.80;99.90
52387;DHT22;38317;53.084;6.960;2022-12-18T16:15:48;-1.10;99.90
52387;DHT22;38317;53.084;6.960;2022-12-18T16:18:14;-1.70;99.90
52387;DHT22;38317;53.084;6.960;2022-12-18T16:20:40;-1.40;99.90
52387;DHT22;38317;53.084;6.960;2022-12-18T16:23:06;-1.80;99.90
52387;DHT22;38317;53.084;6.960;2022-12-18T16:25:32;-1.80;99.90
52387;DHT22;38317;53.084;6.960;2022-12-18T16:27:58;-1.70;99.90
52387;DHT22;38317;53.084;6.960;2022-12-18T16:30:29;-1.70;99.90
52387;DHT22;38317;53.084;6.960;2022-12-18T16:32:56;-1.80;99.90
52387;DHT22;38317;53.084;6.960;2022-12-18T16:35:23;-1.30;99.90
52387;DHT22;38317;53.084;6.960;2022-12-18T16:37:48;-0.70;99.90
52387;DHT22;38317;53.084;6.960;2022-12-18T16:40:16;-1.80;99.90
52387;DHT22;38317;53.084;6.960;2022-12-18T16:42:43;-1.60;99.90
52387;DHT22;38317;53.084;6.960;2022-12-18T16:45:15;-1.80;99.90
52387;DHT22;38317;53.084;6.960;2022-12-18T16:47:41;-1.60;99.90
52387;DHT22;38317;53.084;6.960;2022-12-18T16:50:08;-1.70;99.90
52387;DHT22;38317;53.084;6.960;2022-12-18T16:52:34;-1.50;99.90
52387;DHT22;38317;53.084;6.960;2022-12-18T16:55:00;-1.40;99.90
52387;DHT22;38317;53.084;6.960;2022-12-18T16:57:26;-1.60;99.90
52387;DHT22;38317;53.084;6.960;2022-12-18T16:59:52;-0.90;99.90
52387;DHT22;38317;53.084;6.960;2022-12-18T17:02:24;-1.60;99.90
52387;DHT22;38317;53.084;6.960;2022-12-18T17:04:53;-1.50;99.90
52387;DHT22;38317;53.084;6.960;2022-12-18T17:07:19;-0.30;99.90
52387;DHT22;38317;53.084;6.960;2022-12-18T17:09:45;-1.50;99.90
52387;DHT22;38317;53.084;6.960;2022-12-18T17:12:10;-1.30;99.90
52387;DHT22;38317;53.084;6.960;2022-12-18T17:14:36;-1.40;99.90
52387;DHT22;38317;53.084;6.960;2022-12-18T17:17:02;-1.20;99.90
52387;DHT22;38317;53.084;6.960;2022-12-18T17:19:28;-1.40;99.90
52387;DHT22;38317;53.084;6.960;2022-12-18T17:21:54;-1.30;99.90
52387;DHT22;38317;53.084;6.960;2022-12-18T17:24:20;-1.50;99.90